Flood From: 18-02-2018 16:00 Until: 19-02-2018 16:00 warning for: Flood Level: Yellow info button

Although rather usual in this region, locally or potentially dangerous phenomena are expected. (such as local winds, summer thunderstorms, rising streams or high waves) Be aware and pay attention to the latest weather updates, especially if you carry out activities exposed to weather or close to a stream or shoreline. 


Meteo18 Weather Cam more information Meteo18 Weather Cam


Thunder radar more information blitzortung!


Rain radar more information rain snow radar


Visit our other weather sites:

Template documentation
and downloads

And another site



Weather Underground History page Text

Daily Summary for March 23, 2017 Units:  Metric    English   Both
« Previous Day
Next Day »
Daily Weekly Monthly Yearly Custom
  High: Low: Average:
Temperature: -17.8 °C -15.7 °C -14.3 °C
Dew Point: -17.8 °C -16.4 °C -15.1 °C
Humidity: Humidity % 85 % 90 %
Wind Speed: 0 km/h 0 km/h 3.9 km/h
Wind Gust: 0 km/h - -
Wind:- - South
Pressure: 0 hPa 34086.9 hPa -
Precipitation: 58.42 mm    
Historical Graphs
 
 
Tabular Data for March 23, 2017
Time Temperature Dew Point Pressure Wind Wind Speed Wind Gust Humidity Rainfall Rate (Hourly)
-17.8 °C -17.8 °C 0 hPa Calm     Humidity % 0 mm
00:02 -14.2 °C -15.3 °C 34178.3 hPa Calm   2.6 km/h 87 % 0 mm
00:12 -14.1 °C -15.1 °C 34178.3 hPa Calm   2.6 km/h 88 % 0 mm
00:17 -14.1 °C -15.1 °C 34178.3 hPa Calm   2.6 km/h 88 % 0 mm
00:22 -14.2 °C -15.2 °C 34178.3 hPa East 2.6 km/h 2.6 km/h 88 % 0 mm
00:27 -14.3 °C -15.2 °C 34164.7 hPa ENE 2.6 km/h 2.6 km/h 89 % 0 mm
00:32 -14.3 °C -15.2 °C 34164.7 hPa ENE 5.1 km/h 5.1 km/h 89 % 0 mm
00:37 -14.2 °C -15.2 °C 34164.7 hPa ENE 2.6 km/h 5.1 km/h 89 % 0 mm
00:42 -14.3 °C -15.3 °C 34164.7 hPa ENE 5.1 km/h 7.7 km/h 88 % 0 mm
00:52 -14.4 °C -15.4 °C 34164.7 hPa Calm   7.7 km/h 88 % 0 mm
00:57 -14.5 °C -15.5 °C 34164.7 hPa Calm   7.7 km/h 88 % 0 mm
01:02 -14.6 °C -15.6 °C 34154.6 hPa Calm   7.7 km/h 88 % 0 mm
01:07 -14.6 °C -15.6 °C 34154.6 hPa Calm   2.6 km/h 88 % 0 mm
01:12 -14.6 °C -15.6 °C 34154.6 hPa Calm   2.6 km/h 88 % 0 mm
01:17 -14.6 °C -15.6 °C 34154.6 hPa Calm     88 % 0 mm
01:22 -14.7 °C -15.7 °C 34154.6 hPa Calm     88 % 0 mm
01:32 -14.8 °C -15.8 °C 34154.6 hPa Calm     89 % 0 mm
01:37 -14.9 °C -15.8 °C 34154.6 hPa Calm     89 % 0 mm
01:42 -14.9 °C -15.7 °C 34144.4 hPa Calm     90 % 0 mm
01:47 -14.9 °C -15.8 °C 34144.4 hPa Calm     89 % 0 mm
01:52 -14.8 °C -15.8 °C 34144.4 hPa NNE 5.1 km/h   89 % 0 mm
02:02 -14.9 °C -15.8 °C 34144.4 hPa Calm   7.7 km/h 89 % 0 mm
02:07 -14.9 °C -15.8 °C 34144.4 hPa North 2.6 km/h 7.7 km/h 89 % 0 mm
02:12 -14.9 °C -15.8 °C 34144.4 hPa Calm   7.7 km/h 89 % 0 mm
02:17 -15 °C -15.9 °C 34144.4 hPa North 2.6 km/h 2.6 km/h 89 % 0 mm
02:22 -15.1 °C -16.1 °C 34144.4 hPa NW 5.1 km/h 5.1 km/h 89 % 0 mm
02:27 -15.2 °C -16 °C 34144.4 hPa NW 2.6 km/h 5.1 km/h 90 % 0 mm
02:32 -15.1 °C -15.9 °C 34144.4 hPa NNE 5.1 km/h 5.1 km/h 90 % 0 mm
02:37 -15.2 °C -16 °C 34144.4 hPa Calm   5.1 km/h 90 % 0 mm
02:42 -15.2 °C -16 °C 34144.4 hPa Calm   5.1 km/h 90 % 0 mm
02:47 -15.3 °C -16.3 °C 34144.4 hPa WNW 2.6 km/h 5.1 km/h 89 % 0 mm
02:52 -15.4 °C -16.3 °C 34144.4 hPa Calm   5.1 km/h 90 % 0 mm
02:57 -15.6 °C -16.4 °C 34144.4 hPa NNE 2.6 km/h 5.1 km/h 90 % 0 mm
03:02 -15.7 °C -16.4 °C 34130.9 hPa Calm   5.1 km/h 91 % 0 mm
03:07 -15.7 °C -16.3 °C 34130.9 hPa North 5.1 km/h 10.3 km/h 92 % 0 mm
03:12 -15.6 °C -16.3 °C 34130.9 hPa NNE 5.1 km/h 10.3 km/h 92 % 0 mm
03:17 -15.5 °C -16.2 °C 34120.7 hPa NNW 2.6 km/h 10.3 km/h 91 % 0 mm
03:22 -15.5 °C -16.2 °C 34120.7 hPa North 5.1 km/h 10.3 km/h 91 % 0 mm
03:32 -15.4 °C -16.2 °C 34107.2 hPa Calm   10.3 km/h 90 % 0 mm
03:42 -15.4 °C -16.2 °C 34120.7 hPa NNE 5.1 km/h 10.3 km/h 90 % 0 mm
03:47 -15.2 °C -16.2 °C 34107.2 hPa NE 2.6 km/h 7.7 km/h 89 % 0 mm
03:52 -15.2 °C -16.2 °C 34107.2 hPa ENE 5.1 km/h 7.7 km/h 88 % 0 mm
03:57 -15.2 °C -16.2 °C 34107.2 hPa NE 2.6 km/h 10.3 km/h 88 % 0 mm
04:02 -15.3 °C -16.3 °C 34107.2 hPa NE 10.3 km/h 10.3 km/h 88 % 0 mm
04:07 -15.3 °C -16.3 °C 34107.2 hPa NE 7.7 km/h 12.9 km/h 88 % 0 mm
04:12 -15.4 °C -16.4 °C 34107.2 hPa NNE 5.1 km/h 12.9 km/h 88 % 0 mm
04:17 -15.4 °C -16.4 °C 34107.2 hPa Calm   12.9 km/h 89 % 0 mm
04:22 -15.4 °C -16.3 °C 34107.2 hPa Calm   12.9 km/h 89 % 0 mm
04:27 -15.4 °C -16.4 °C 34107.2 hPa NE 5.1 km/h 10.3 km/h 88 % 0 mm
04:32 -15.4 °C -16.3 °C 34107.2 hPa NNE 7.7 km/h 10.3 km/h 89 % 0 mm
04:42 -15.2 °C -16.2 °C 34107.2 hPa NNE 7.7 km/h 10.3 km/h 88 % 0 mm
04:47 -15.2 °C -16.2 °C 34097 hPa NNE 10.3 km/h 10.3 km/h 88 % 0 mm
04:52 -15.2 °C -16.3 °C 34086.9 hPa Calm   10.3 km/h 87 % 0 mm
04:57 -15.3 °C -16.3 °C 34086.9 hPa NE 10.3 km/h 10.3 km/h 88 % 0 mm
05:02 -15.2 °C -16.2 °C 34097 hPa NE 5.1 km/h 10.3 km/h 88 % 0 mm
05:12 -15.2 °C -16.3 °C 34097 hPa NE 5.1 km/h 10.3 km/h 87 % 0 mm
05:17 -15.1 °C -16.2 °C 34086.9 hPa NE 7.7 km/h 7.7 km/h 87 % 0 mm
05:22 -15.2 °C -16.3 °C 34086.9 hPa NNE 5.1 km/h 7.7 km/h 87 % 0 mm
05:32 -15.2 °C -16.3 °C 34086.9 hPa Calm   10.3 km/h 87 % 0 mm
05:42 -15.2 °C -16.2 °C 34086.9 hPa Calm   10.3 km/h 88 % 0 mm
05:52 -15.2 °C -16.2 °C 34097 hPa Calm   10.3 km/h 88 % 0 mm
06:02 -15.2 °C -16.2 °C 34097 hPa Calm   2.6 km/h 88 % 0 mm
06:12 -15.1 °C -16.1 °C 34107.2 hPa WSW 10.3 km/h 10.3 km/h 88 % 0 mm
06:17 -15.1 °C -16.1 °C 34097 hPa Calm   10.3 km/h 88 % 0 mm
06:22 -15.1 °C -16.1 °C 34107.2 hPa Calm   10.3 km/h 88 % 0 mm
06:27 -15.1 °C -16.1 °C 34107.2 hPa Calm   10.3 km/h 89 % 0 mm
06:32 -15.1 °C -16.1 °C 34107.2 hPa SSW 2.6 km/h 10.3 km/h 89 % 0 mm
06:37 -15.1 °C -15.9 °C 34107.2 hPa SSW 2.6 km/h 7.7 km/h 90 % 0 mm
06:42 -15 °C -15.8 °C 34107.2 hPa WSW 2.6 km/h 7.7 km/h 90 % 0 mm
06:47 -14.9 °C -15.8 °C 34107.2 hPa SSW 2.6 km/h 12.9 km/h 89 % 0 mm
06:52 -14.9 °C -15.8 °C 34107.2 hPa South 2.6 km/h 12.9 km/h 89 % 0 mm
07:02 -14.9 °C -15.8 °C 34107.2 hPa SSW 5.1 km/h 12.9 km/h 90 % 0 mm
07:12 -15 °C -15.7 °C 34107.2 hPa Calm   5.1 km/h 91 % 0 mm
07:17 -14.9 °C -15.7 °C 34107.2 hPa SSE 2.6 km/h 5.1 km/h 91 % 0 mm
07:22 -14.9 °C -15.6 °C 34107.2 hPa Calm   5.1 km/h 91 % 0 mm
07:32 -14.8 °C -15.6 °C 34120.7 hPa Calm   2.6 km/h 91 % 0 mm
07:37 -14.8 °C -15.6 °C 34120.7 hPa Calm   2.6 km/h 91 % 0 mm
07:42 -14.8 °C -15.6 °C 34120.7 hPa Calm   2.6 km/h 91 % 0 mm
07:47 -14.8 °C -15.6 °C 34120.7 hPa Calm   2.6 km/h 91 % 0 mm
07:52 -14.8 °C -15.6 °C 34130.9 hPa Calm     91 % 7.62 mm
07:57 -14.8 °C -15.5 °C 34130.9 hPa SW 2.6 km/h   92 % 7.62 mm
08:02 -14.8 °C -15.4 °C 34130.9 hPa SW 2.6 km/h 5.1 km/h 92 % 7.62 mm
08:07 -14.8 °C -15.4 °C 34130.9 hPa Calm   5.1 km/h 92 % 7.62 mm
08:12 -14.8 °C -15.4 °C 34144.4 hPa SSW 2.6 km/h 7.7 km/h 92 % 7.62 mm
08:17 -14.7 °C -15.4 °C 34144.4 hPa South 10.3 km/h 10.3 km/h 92 % 7.62 mm
08:22 -14.7 °C -15.3 °C 34144.4 hPa SSW 2.6 km/h 12.9 km/h 93 % 7.62 mm
08:27 -14.7 °C -15.3 °C 34144.4 hPa Calm   12.9 km/h 93 % 7.62 mm
08:32 -14.7 °C -15.3 °C 34144.4 hPa Calm   12.9 km/h 93 % 12.7 mm
08:42 -14.8 °C -15.3 °C 34144.4 hPa Calm   2.6 km/h 93 % 12.7 mm
08:47 -14.7 °C -15.3 °C 34130.9 hPa Calm   2.6 km/h 93 % 12.7 mm
08:52 -14.7 °C -15.3 °C 34130.9 hPa SE 2.6 km/h 2.6 km/h 93 % 7.62 mm
09:02 -14.6 °C -15.1 °C 34130.9 hPa Calm   2.6 km/h 93 % 7.62 mm
09:07 -14.6 °C -15.2 °C 34144.4 hPa SE 2.6 km/h 2.6 km/h 93 % 7.62 mm
09:12 -14.5 °C -15 °C 34144.4 hPa SE 2.6 km/h 5.1 km/h 94 % 12.7 mm
09:17 -14.3 °C -14.8 °C 34144.4 hPa SE 2.6 km/h 5.1 km/h 93 % 12.7 mm
09:22 -14.2 °C -14.8 °C 34144.4 hPa SSW 2.6 km/h 5.1 km/h 93 % 12.7 mm
09:27 -14 °C -14.7 °C 34144.4 hPa SSW 2.6 km/h 5.1 km/h 92 % 12.7 mm
09:32 -13.9 °C -14.7 °C 34144.4 hPa SW 2.6 km/h 7.7 km/h 91 % 7.62 mm
09:37 -13.8 °C -14.7 °C 34144.4 hPa SSE 2.6 km/h 7.7 km/h 90 % 7.62 mm
09:42 -13.8 °C -14.6 °C 34144.4 hPa Calm   5.1 km/h 90 % 7.62 mm
09:47 -13.8 °C -14.8 °C 34144.4 hPa Calm   5.1 km/h 89 % 7.62 mm
09:52 -13.8 °C -14.6 °C 34144.4 hPa Calm   5.1 km/h 90 % 7.62 mm
09:57 -13.7 °C -14.7 °C 34144.4 hPa Calm   5.1 km/h 89 % 7.62 mm
10:02 -13.7 °C -14.7 °C 34154.6 hPa SW 2.6 km/h 5.1 km/h 89 % 7.62 mm
10:07 -13.8 °C -14.7 °C 34154.6 hPa SSW 7.7 km/h 7.7 km/h 89 % 7.62 mm
10:12 -13.8 °C -14.7 °C 34164.7 hPa SW 18.2 km/h 18.2 km/h 90 % 0 mm
10:17 -14 °C -14.8 °C 34178.3 hPa WSW 15.6 km/h 15.6 km/h 90 % 0 mm
10:22 -14.1 °C -14.8 °C 34164.7 hPa SSW 15.6 km/h 31.1 km/h 91 % 0 mm
10:27 -14.1 °C -14.8 °C 34178.3 hPa SW 18.2 km/h 31.1 km/h 91 % 0 mm
10:32 -14.1 °C -14.8 °C 34164.7 hPa WSW 18.2 km/h 31.1 km/h 91 % 0 mm
10:37 -14.1 °C -14.8 °C 34164.7 hPa SW 15.6 km/h 31.1 km/h 91 % 0 mm
10:42 -14.1 °C -14.9 °C 34164.7 hPa Calm   20.8 km/h 91 % 0 mm
10:47 -14.1 °C -14.9 °C 34164.7 hPa WSW 5.1 km/h 20.8 km/h 91 % 0 mm
10:52 -14.1 °C -14.9 °C 34164.7 hPa WSW 2.6 km/h 18.2 km/h 91 % 0 mm
10:57 -14.1 °C -14.9 °C 34164.7 hPa WSW 7.7 km/h 18.2 km/h 91 % 0 mm
11:02 -14.1 °C -14.9 °C 34164.7 hPa Calm   7.7 km/h 91 % 0 mm
11:07 -14.1 °C -14.9 °C 34164.7 hPa Calm   7.7 km/h 91 % 0 mm
11:12 -14.1 °C -14.8 °C 34164.7 hPa SW 2.6 km/h 7.7 km/h 91 % 0 mm
11:17 -14.1 °C -14.8 °C 34178.3 hPa West 5.1 km/h 7.7 km/h 91 % 0 mm
11:27 -14 °C -14.7 °C 34178.3 hPa WSW 7.7 km/h 7.7 km/h 92 % 0 mm
11:32 -13.9 °C -14.6 °C 34164.7 hPa WSW 10.3 km/h 12.9 km/h 92 % 0 mm
11:37 -13.9 °C -14.7 °C 34178.3 hPa WSW 18.2 km/h 18.2 km/h 91 % 0 mm
11:42 -13.9 °C -14.6 °C 34178.3 hPa WSW 7.7 km/h 18.2 km/h 92 % 0 mm
11:52 -14 °C -14.8 °C 34164.7 hPa SW 5.1 km/h 18.2 km/h 91 % 0 mm
11:57 -13.9 °C -14.6 °C 34178.3 hPa WSW 2.6 km/h 18.2 km/h 92 % 0 mm
12:02 -13.9 °C -14.7 °C 34178.3 hPa WSW 5.1 km/h 12.9 km/h 91 % 0 mm
12:07 -13.9 °C -14.7 °C 34178.3 hPa West 2.6 km/h 12.9 km/h 91 % 0 mm
12:12 -13.8 °C -14.6 °C 34178.3 hPa West 2.6 km/h 10.3 km/h 91 % 0 mm
12:17 -13.8 °C -14.7 °C 34178.3 hPa West 7.7 km/h 10.3 km/h 90 % 0 mm
12:22 -13.9 °C -14.7 °C 34178.3 hPa West 5.1 km/h 12.9 km/h 90 % 0 mm
12:32 -13.8 °C -14.7 °C 34178.3 hPa West 2.6 km/h 12.9 km/h 90 % 0 mm
12:37 -13.8 °C -14.7 °C 34178.3 hPa WNW 2.6 km/h 12.9 km/h 90 % 0 mm
12:42 -13.7 °C -14.6 °C 34178.3 hPa West 5.1 km/h 10.3 km/h 90 % 7.62 mm
12:47 -13.6 °C -14.4 °C 34164.7 hPa Calm   10.3 km/h 90 % 7.62 mm
12:52 -13.4 °C -14.4 °C 34178.3 hPa Calm   12.9 km/h 89 % 7.62 mm
12:57 -13.4 °C -14.4 °C 34178.3 hPa SE 2.6 km/h 12.9 km/h 88 % 7.62 mm
13:02 -13.2 °C -14.3 °C 34178.3 hPa NE 5.1 km/h 12.9 km/h 88 % 7.62 mm
13:12 -13 °C -14.1 °C 34178.3 hPa Calm   5.1 km/h 87 % 7.62 mm
13:17 -13 °C -14.1 °C 34178.3 hPa NNE 2.6 km/h 7.7 km/h 87 % 7.62 mm
13:22 -12.9 °C -14.1 °C 34178.3 hPa Calm   7.7 km/h 87 % 7.62 mm
13:32 -12.8 °C -14.1 °C 34188.4 hPa Calm   2.6 km/h 86 % 7.62 mm
13:37 -12.9 °C -14.3 °C 34188.4 hPa Calm     85 % 0 mm
13:42 -12.9 °C -14.3 °C 34198.6 hPa SW 7.7 km/h   85 % 0 mm
13:47 -13 °C -14.2 °C 34198.6 hPa Calm   10.3 km/h 86 % 0 mm
13:52 -13 °C -14.3 °C 34198.6 hPa SSW 10.3 km/h 10.3 km/h 85 % 0 mm
13:57 -13.1 °C -14.3 °C 34198.6 hPa South 2.6 km/h 18.2 km/h 86 % 0 mm
14:02 -13.1 °C -14.3 °C 34198.6 hPa SSW 5.1 km/h 18.2 km/h 86 % 0 mm
14:07 -13.2 °C -14.3 °C 34198.6 hPa SSW 7.7 km/h 18.2 km/h 87 % 7.62 mm
14:12 -13.2 °C -14.3 °C 34198.6 hPa SSW 5.1 km/h 18.2 km/h 87 % 7.62 mm
14:17 -13.3 °C -14.4 °C 34198.6 hPa South 2.6 km/h 15.6 km/h 87 % 7.62 mm
14:22 -13.3 °C -14.5 °C 34198.6 hPa SSE 5.1 km/h 15.6 km/h 86 % 7.62 mm
14:27 -13.3 °C -14.4 °C 34198.6 hPa SSW 12.9 km/h 18.2 km/h 87 % 7.62 mm
14:32 -13.3 °C -14.4 °C 34212.1 hPa SSW 18.2 km/h 18.2 km/h 87 % 7.62 mm
14:37 -13.3 °C -14.4 °C 34212.1 hPa SSW 18.2 km/h 20.8 km/h 88 % 7.62 mm
14:42 -13.4 °C -14.4 °C 34222.3 hPa SW 15.6 km/h 20.8 km/h 89 % 7.62 mm
14:52 -13.7 °C -14.4 °C 34212.1 hPa SSW 12.9 km/h 31.1 km/h 91 % 12.7 mm
15:02 -13.7 °C -14.4 °C 34198.6 hPa WSW 7.7 km/h 31.1 km/h 92 % 25.4 mm
15:07 -13.7 °C -14.3 °C 34198.6 hPa WSW 7.7 km/h 20.8 km/h 93 % 33.02 mm
15:12 -13.7 °C -14.4 °C 34198.6 hPa WSW 18.2 km/h 20.8 km/h 91 % 33.02 mm
15:22 -13.7 °C -14.4 °C 34198.6 hPa WSW 7.7 km/h 31.1 km/h 92 % 33.02 mm
15:27 -13.7 °C -14.3 °C 34212.1 hPa SW 10.3 km/h 33.6 km/h 92 % 38.1 mm
15:32 -13.6 °C -14.2 °C 34198.6 hPa WSW 5.1 km/h 33.6 km/h 92 % 38.1 mm
15:42 -13.6 °C -14.3 °C 34212.1 hPa WSW 18.2 km/h 28.5 km/h 91 % 38.1 mm
15:47 -13.6 °C -14.3 °C 34212.1 hPa West 18.2 km/h 28.5 km/h 91 % 25.4 mm
15:52 -13.7 °C -14.7 °C 34212.1 hPa West 23.3 km/h 28.5 km/h 89 % 25.4 mm
16:02 -13.7 °C -14.7 °C 34222.3 hPa West 20.8 km/h 33.6 km/h 89 % 12.7 mm
16:12 -13.6 °C -14.5 °C 34222.3 hPa West 15.6 km/h 33.6 km/h 89 % 7.62 mm
16:17 -13.6 °C -14.6 °C 34235.8 hPa SW 15.6 km/h 23.3 km/h 88 % 7.62 mm
16:22 -13.6 °C -14.8 °C 34222.3 hPa West 15.6 km/h 23.3 km/h 86 % 7.62 mm
16:32 -13.6 °C -14.8 °C 34235.8 hPa West 10.3 km/h 23.3 km/h 86 % 0 mm
16:37 -13.6 °C -14.8 °C 34235.8 hPa WSW 2.6 km/h 23.3 km/h 86 % 0 mm
16:42 -13.6 °C -14.8 °C 34235.8 hPa West 12.9 km/h 23.3 km/h 86 % 0 mm
16:47 -13.6 °C -14.8 °C 34246 hPa WSW 12.9 km/h 20.8 km/h 86 % 0 mm
16:52 -13.6 °C -14.8 °C 34246 hPa WSW 7.7 km/h 20.8 km/h 86 % 0 mm
16:57 -13.7 °C -14.9 °C 34256.2 hPa WSW 10.3 km/h 18.2 km/h 86 % 0 mm
17:02 -13.7 °C -14.8 °C 34256.2 hPa WSW 2.6 km/h 18.2 km/h 87 % 0 mm
17:12 -13.7 °C -14.8 °C 34256.2 hPa SW 5.1 km/h 15.6 km/h 87 % 0 mm
17:17 -13.7 °C -14.8 °C 34256.2 hPa Calm   7.7 km/h 87 % 0 mm
17:22 -13.7 °C -14.7 °C 34256.2 hPa Calm   7.7 km/h 88 % 0 mm
17:32 -13.6 °C -14.7 °C 34256.2 hPa Calm   7.7 km/h 88 % 0 mm
17:42 -13.7 °C -14.7 °C 34269.7 hPa Calm   7.7 km/h 88 % 0 mm
17:47 -13.7 °C -14.7 °C 34269.7 hPa Calm   7.7 km/h 88 % 0 mm
17:52 -13.7 °C -14.6 °C 34279.9 hPa ESE 2.6 km/h 7.7 km/h 89 % 0 mm
17:57 -13.7 °C -14.6 °C 34279.9 hPa Calm   5.1 km/h 89 % 0 mm
18:02 -13.7 °C -14.6 °C 34293.4 hPa Calm   5.1 km/h 89 % 0 mm
18:12 -13.7 °C -14.6 °C 34303.6 hPa Calm   5.1 km/h 90 % 0 mm
18:17 -13.7 °C -14.6 °C 34303.6 hPa ESE 7.7 km/h 7.7 km/h 90 % 0 mm
18:22 -13.7 °C -14.6 °C 34303.6 hPa Calm   7.7 km/h 90 % 0 mm
18:27 -13.8 °C -14.6 °C 34303.6 hPa Calm   7.7 km/h 90 % 0 mm
18:32 -13.8 °C -14.6 °C 34313.7 hPa SE 2.6 km/h 7.7 km/h 90 % 0 mm
18:37 -13.8 °C -14.6 °C 34313.7 hPa Calm   7.7 km/h 90 % 0 mm
18:42 -13.8 °C -14.6 °C 34313.7 hPa Calm   7.7 km/h 90 % 0 mm
18:47 -13.8 °C -14.7 °C 34303.6 hPa Calm   7.7 km/h 90 % 0 mm
18:57 -13.8 °C -14.6 °C 34303.6 hPa Calm   5.1 km/h 91 % 0 mm
19:02 -13.9 °C -14.7 °C 34303.6 hPa Calm   5.1 km/h 91 % 0 mm
19:12 -13.9 °C -14.7 °C 34313.7 hPa Calm   5.1 km/h 91 % 0 mm
19:17 -13.9 °C -14.6 °C 34313.7 hPa Calm   5.1 km/h 92 % 0 mm
19:22 -14 °C -14.7 °C 34327.3 hPa Calm   5.1 km/h 92 % 0 mm
19:32 -14 °C -14.7 °C 34327.3 hPa Calm   2.6 km/h 92 % 0 mm
19:37 -14 °C -14.7 °C 34327.3 hPa Calm   2.6 km/h 92 % 0 mm
19:42 -14 °C -14.6 °C 34337.4 hPa SW 5.1 km/h 5.1 km/h 93 % 0 mm
19:52 -14 °C -14.6 °C 34347.6 hPa SSW 2.6 km/h 7.7 km/h 93 % 0 mm
19:57 -14 °C -14.6 °C 34347.6 hPa SW 5.1 km/h 7.7 km/h 93 % 0 mm
20:02 -14 °C -14.6 °C 34347.6 hPa SSW 5.1 km/h 7.7 km/h 93 % 0 mm
20:07 -14 °C -14.6 °C 34361.1 hPa SSW 7.7 km/h 10.3 km/h 93 % 0 mm
20:12 -14 °C -14.6 °C 34361.1 hPa SSW 5.1 km/h 10.3 km/h 93 % 0 mm
20:17 -14 °C -14.6 °C 34361.1 hPa SSW 2.6 km/h 12.9 km/h 93 % 0 mm
20:22 -14.1 °C -14.7 °C 34371.3 hPa SSW 2.6 km/h 12.9 km/h 93 % 0 mm
20:27 -14.1 °C -14.7 °C 34371.3 hPa Calm   10.3 km/h 93 % 0 mm
20:37 -14.1 °C -14.7 °C 34384.8 hPa Calm   10.3 km/h 92 % 0 mm
20:42 -14.1 °C -14.7 °C 34384.8 hPa South 2.6 km/h 10.3 km/h 93 % 0 mm
20:52 -14.1 °C -14.7 °C 34384.8 hPa Calm   10.3 km/h 93 % 0 mm
20:57 -14.1 °C -14.7 °C 34384.8 hPa Calm   5.1 km/h 93 % 0 mm
21:02 -14.1 °C -14.7 °C 34384.8 hPa South 2.6 km/h 5.1 km/h 93 % 0 mm
21:12 -14.1 °C -14.7 °C 34384.8 hPa Calm   5.1 km/h 93 % 0 mm
21:17 -14.2 °C -14.8 °C 34395 hPa SSW 2.6 km/h 5.1 km/h 93 % 0 mm
21:22 -14.2 °C -14.8 °C 34395 hPa Calm   5.1 km/h 93 % 0 mm
21:27 -14.2 °C -14.8 °C 34405.1 hPa SW 2.6 km/h 5.1 km/h 93 % 0 mm
21:32 -14.2 °C -14.8 °C 34405.1 hPa SSW 2.6 km/h 5.1 km/h 93 % 0 mm
21:42 -14.2 °C -14.8 °C 34405.1 hPa Calm   7.7 km/h 93 % 0 mm
21:52 -14.2 °C -14.8 °C 34405.1 hPa SW 7.7 km/h 7.7 km/h 93 % 0 mm
21:57 -14.2 °C -14.8 °C 34405.1 hPa Calm   10.3 km/h 93 % 0 mm
22:02 -14.2 °C -14.8 °C 34405.1 hPa Calm   10.3 km/h 93 % 0 mm
22:07 -14.2 °C -14.8 °C 34405.1 hPa SSW 2.6 km/h 7.7 km/h 93 % 0 mm
22:17 -14.2 °C -14.9 °C 34418.7 hPa SSW 2.6 km/h 5.1 km/h 92 % 0 mm
22:22 -14.3 °C -14.9 °C 34418.7 hPa Calm   5.1 km/h 92 % 0 mm
22:27 -14.3 °C -14.9 °C 34418.7 hPa Calm   2.6 km/h 92 % 0 mm
22:32 -14.3 °C -15 °C 34428.8 hPa SW 2.6 km/h 2.6 km/h 92 % 0 mm
22:42 -14.3 °C -14.9 °C 34428.8 hPa West 2.6 km/h 5.1 km/h 93 % 0 mm
22:52 -14.3 °C -15 °C 34428.8 hPa Calm   5.1 km/h 92 % 0 mm
22:57 -14.4 °C -15.1 °C 34442.4 hPa Calm   2.6 km/h 92 % 0 mm
23:02 -14.4 °C -15.1 °C 34442.4 hPa Calm   2.6 km/h 92 % 0 mm
23:12 -14.5 °C -15.1 °C 34452.6 hPa Calm     93 % 0 mm
23:17 -14.5 °C -15.1 °C 34452.6 hPa Calm   2.6 km/h 93 % 0 mm
23:22 -14.6 °C -15.1 °C 34452.6 hPa Calm   2.6 km/h 93 % 0 mm
23:32 -14.7 °C -15.2 °C 34452.6 hPa ENE 2.6 km/h 5.1 km/h 93 % 0 mm
23:37 -14.8 °C -15.3 °C 34462.7 hPa Calm   5.1 km/h 93 % 0 mm
23:42 -14.8 °C -15.3 °C 34462.7 hPa East 5.1 km/h 5.1 km/h 94 % 0 mm
23:52 -14.8 °C -15.4 °C 34462.7 hPa Calm   5.1 km/h 93 % 0 mm
23:57 -14.9 °C -15.5 °C 34452.6 hPa Calm   5.1 km/h 93 % 0 mm
Meteo18
Compliments of Weather Underground - 4 mb

Script developed by  Jim McMurry - jmcmurry@mwt.net Adapted for the template by  Wim van der Kuil - Leuven-Template.eu

You find our weather info also at:

European Weather Network

Weather Underground

Equipment we use:

Weather-station
Davis Vue

Weather-program
Meteobridge

Weather-server
Raspberry PI 2 B+

Provider
1 and 1

Davis Vue

Meteobridge

Raspberry PI 2 B+

1 and 1